EGPH/EDI METAR and TAF weather

Enter ICAO airport designator
Station Type Date Time Source
EGPH METAR 2019/07/15 20:20 UTC NOAA

EGPH 152020Z 05004KT CAVOK 15/14 Q1019


Station Type Date Time Source
EGPH Decoded METAR 2019/07/15 20:20 UTC NOAA

Edinburgh Airport, United Kingdom (EGPH) 55-57N 003-21W 0M
Jul 15, 2019 - 04:20 PM EDT / 2019.07.15 2020 UTC
Wind: from the NE (050 degrees) at 5 MPH (4 KT):0
Visibility: greater than 7 mile(s):0
Temperature: 59 F (15 C)
Dew Point: 57 F (14 C)
Relative Humidity: 93%
Pressure (altimeter): 30.09 in. Hg (1019 hPa)
ob: EGPH 152020Z 05004KT CAVOK 15/14 Q1019
cycle: 20

Station Type Date Time Source
EGPH TAF 2019/07/15 18:06 UTC NOAA

TAF EGPH 151702Z 1518/1618 04007KT 9999 FEW015
BECMG 1608/1611 24010KT PROB30
TEMPO 1612/1618 7000 SHRA

Example: see airport list